Cincinnati Municipal Airport Lunken Field
KLUK : now visible

Airfield :











YOU CAN JOIN US ON...

 
LOGIN :

Register | Disclaimer

   EN    FR    IT 

 









Legend :    VFR   Marginal VFR   IFR   Intensive IFR   Very Intensive IFR
Visi :
Ceiling :
>= 8 km
>= 3000ft
5 to 8 km
1000 to 3000 ft
1500m to 5 km
500 to 1000 ft
800 to 1500m
200 to 500 ft
< 800m
< 200 ft
Symbols :   Thunderstorms  Fog  Heavy snow  Heavy precipitations  Wind > 20 kt






- Airport Elevation : 483 ft
- IATA code : LUK


KLUK - Cincinnati Municipal Lunken Field

CURRENT METAR :
  • 250853Z AUTO 23009KT 10SM BKN015 BKN022 OVC029 04/02 A2990 RMK AO2 RAE30 SLP128 P0000 60005 T00390022 53004

EXPIRED METARs :
  • 250813Z AUTO 23008KT 10SM -RA FEW010 OVC015 04/02 A2990 RMK AO2 P0000 T00390022
  • 250753Z AUTO 23006KT 9SM -RA BKN013 OVC019 04/03 A2990 RMK AO2 SLP126 P0002 T00390028
  • 250653Z AUTO 22008KT 9SM -RA SCT013 OVC020 04/03 A2989 RMK AO2 SLP122 P0003 T00440033
  • 250618Z AUTO 23004KT 6SM -RA BR OVC013 04/03 A2989 RMK AO2 P0002 T00390033
  • 250553Z AUTO 22004KT 10SM -RA SCT019 OVC025 04/03 A2989 RMK AO2 RAB29 SLP124 P0000 60003 T00390033 10061 20033 50002

TAF KLUK
Valid from the 25 at 06:00 until the 26 at 06:00 UTC


250538Z 2506/2606 20004KT P6SM VCSH SCT025 OVC090
FM250700 22005KT P6SM VCSH OVC025
FM250800 24008KT P6SM -RA OVC015
FM251200 24010KT P6SM OVC012
FM251800 23012G18KT P6SM -RA OVC008
FM252300 24012KT 4SM -RASN OVC010
FM260500 24010KT 4SM BR VCSH OVC012



MET'MAP, your aeronautical weather chart ! - Copyright ORBIFLY December 2007 - Disclaimer

ORBIFLY MET'MAP TEAM :

Programming & Development : Alexandra Zaïnal
Concept & original design : Baudouin d'Aumeries
Assistance for programming : Marc-Olivier Méhu
Technical & hardware support : Manuel Goepfert

Contact : metmap@orbifly.com




SOURCES & CREDITS :

   NOAA       Earth
Advisory